sensor_id;sensor_type;location;lat;lon;timestamp;temperature;humidity
29201;DHT22;16244;51.956;12.980;2022-08-24T00:02:16;15.40;99.90
29201;DHT22;16244;51.956;12.980;2022-08-24T00:04:44;15.30;99.90
29201;DHT22;16244;51.956;12.980;2022-08-24T00:07:11;15.20;99.90
29201;DHT22;16244;51.956;12.980;2022-08-24T00:09:38;15.10;99.90
29201;DHT22;16244;51.956;12.980;2022-08-24T00:12:06;15.10;99.90
29201;DHT22;16244;51.956;12.980;2022-08-24T00:14:33;15.10;99.90
29201;DHT22;16244;51.956;12.980;2022-08-24T00:17:01;15.20;99.90
29201;DHT22;16244;51.956;12.980;2022-08-24T00:19:30;15.20;99.90
29201;DHT22;16244;51.956;12.980;2022-08-24T00:21:57;15.20;99.90
29201;DHT22;16244;51.956;12.980;2022-08-24T00:24:25;15.10;99.90
29201;DHT22;16244;51.956;12.980;2022-08-24T00:26:53;15.10;99.90
29201;DHT22;16244;51.956;12.980;2022-08-24T00:29:21;15.10;99.90
29201;DHT22;16244;51.956;12.980;2022-08-24T00:31:49;15.10;99.90
29201;DHT22;16244;51.956;12.980;2022-08-24T00:34:16;15.10;99.90
29201;DHT22;16244;51.956;12.980;2022-08-24T00:36:45;15.10;99.90
29201;DHT22;16244;51.956;12.980;2022-08-24T00:39:13;15.10;99.90
29201;DHT22;16244;51.956;12.980;2022-08-24T00:41:41;15.00;99.90
29201;DHT22;16244;51.956;12.980;2022-08-24T00:44:09;15.10;99.90
29201;DHT22;16244;51.956;12.980;2022-08-24T00:46:42;15.20;99.90
29201;DHT22;16244;51.956;12.980;2022-08-24T00:49:21;15.30;99.90
29201;DHT22;16244;51.956;12.980;2022-08-24T00:51:56;15.30;99.90
29201;DHT22;16244;51.956;12.980;2022-08-24T00:54:25;15.30;99.90
29201;DHT22;16244;51.956;12.980;2022-08-24T00:56:58;15.10;99.90
29201;DHT22;16244;51.956;12.980;2022-08-24T00:59:31;14.90;99.90
29201;DHT22;16244;51.956;12.980;2022-08-24T01:02:04;14.90;99.90
29201;DHT22;16244;51.956;12.980;2022-08-24T01:04:37;14.90;99.90
29201;DHT22;16244;51.956;12.980;2022-08-24T01:07:10;14.90;99.90
29201;DHT22;16244;51.956;12.980;2022-08-24T01:10:08;14.80;99.90
29201;DHT22;16244;51.956;12.980;2022-08-24T01:12:54;14.70;99.90
29201;DHT22;16244;51.956;12.980;2022-08-24T01:15:38;14.70;99.90
29201;DHT22;16244;51.956;12.980;2022-08-24T01:18:24;14.60;99.90
29201;DHT22;16244;51.956;12.980;2022-08-24T01:21:14;14.60;99.90
29201;DHT22;16244;51.956;12.980;2022-08-24T01:24:14;14.60;99.90
29201;DHT22;16244;51.956;12.980;2022-08-24T01:26:52;14.60;99.90
29201;DHT22;16244;51.956;12.980;2022-08-24T01:29:24;14.70;99.90
29201;DHT22;16244;51.956;12.980;2022-08-24T01:32:07;14.70;99.90
29201;DHT22;16244;51.956;12.980;2022-08-24T01:34:43;14.70;99.90
29201;DHT22;16244;51.956;12.980;2022-08-24T01:37:10;14.70;99.90
29201;DHT22;16244;51.956;12.980;2022-08-24T01:40:08;14.60;99.90
29201;DHT22;16244;51.956;12.980;2022-08-24T01:42:53;14.50;99.90
29201;DHT22;16244;51.956;12.980;2022-08-24T01:45:20;14.40;99.90
29201;DHT22;16244;51.956;12.980;2022-08-24T01:48:02;14.30;99.90
29201;DHT22;16244;51.956;12.980;2022-08-24T01:50:53;14.30;99.90
29201;DHT22;16244;51.956;12.980;2022-08-24T01:53:49;14.30;99.90
29201;DHT22;16244;51.956;12.980;2022-08-24T01:56:48;14.40;99.90
29201;DHT22;16244;51.956;12.980;2022-08-24T01:59:30;14.30;99.90
29201;DHT22;16244;51.956;12.980;2022-08-24T02:02:14;14.40;99.90
29201;DHT22;16244;51.956;12.980;2022-08-24T02:04:42;14.40;99.90
29201;DHT22;16244;51.956;12.980;2022-08-24T02:07:09;14.40;99.90
29201;DHT22;16244;51.956;12.980;2022-08-24T02:09:52;14.40;99.90
29201;DHT22;16244;51.956;12.980;2022-08-24T02:12:21;14.30;99.90
29201;DHT22;16244;51.956;12.980;2022-08-24T02:15:17;14.30;99.90
29201;DHT22;16244;51.956;12.980;2022-08-24T02:17:44;14.20;99.90
29201;DHT22;16244;51.956;12.980;2022-08-24T02:20:11;14.00;99.90
29201;DHT22;16244;51.956;12.980;2022-08-24T02:22:38;13.80;99.90
29201;DHT22;16244;51.956;12.980;2022-08-24T02:25:06;13.80;99.90
29201;DHT22;16244;51.956;12.980;2022-08-24T02:27:34;13.80;99.90
29201;DHT22;16244;51.956;12.980;2022-08-24T02:30:01;13.90;99.90
29201;DHT22;16244;51.956;12.980;2022-08-24T02:32:28;13.90;99.90
29201;DHT22;16244;51.956;12.980;2022-08-24T02:34:56;14.00;99.90
29201;DHT22;16244;51.956;12.980;2022-08-24T02:37:23;14.00;99.90
29201;DHT22;16244;51.956;12.980;2022-08-24T02:39:50;14.00;99.90
29201;DHT22;16244;51.956;12.980;2022-08-24T02:42:17;14.00;99.90
29201;DHT22;16244;51.956;12.980;2022-08-24T02:44:46;14.10;99.90
29201;DHT22;16244;51.956;12.980;2022-08-24T02:47:13;14.00;99.90
29201;DHT22;16244;51.956;12.980;2022-08-24T02:49:41;13.90;99.90
29201;DHT22;16244;51.956;12.980;2022-08-24T02:52:08;13.80;99.90
29201;DHT22;16244;51.956;12.980;2022-08-24T02:54:35;13.80;99.90
29201;DHT22;16244;51.956;12.980;2022-08-24T02:57:02;13.70;99.90
29201;DHT22;16244;51.956;12.980;2022-08-24T02:59:30;13.60;99.90
29201;DHT22;16244;51.956;12.980;2022-08-24T03:01:59;13.60;99.90
29201;DHT22;16244;51.956;12.980;2022-08-24T03:04:26;13.60;99.90
29201;DHT22;16244;51.956;12.980;2022-08-24T03:06:53;13.60;99.90
29201;DHT22;16244;51.956;12.980;2022-08-24T03:09:21;13.60;99.90
29201;DHT22;16244;51.956;12.980;2022-08-24T03:11:48;13.70;99.90
29201;DHT22;16244;51.956;12.980;2022-08-24T03:14:15;13.70;99.90
29201;DHT22;16244;51.956;12.980;2022-08-24T03:16:43;13.80;99.90
29201;DHT22;16244;51.956;12.980;2022-08-24T03:19:12;13.80;99.90
29201;DHT22;16244;51.956;12.980;2022-08-24T03:21:40;13.90;99.90
29201;DHT22;16244;51.956;12.980;2022-08-24T03:24:08;14.00;99.90
29201;DHT22;16244;51.956;12.980;2022-08-24T03:26:35;14.00;99.90
29201;DHT22;16244;51.956;12.980;2022-08-24T03:29:03;13.90;99.90
29201;DHT22;16244;51.956;12.980;2022-08-24T03:31:31;13.90;99.90
29201;DHT22;16244;51.956;12.980;2022-08-24T03:33:58;13.80;99.90
29201;DHT22;16244;51.956;12.980;2022-08-24T03:36:26;13.80;99.90
29201;DHT22;16244;51.956;12.980;2022-08-24T03:38:53;13.80;99.90
29201;DHT22;16244;51.956;12.980;2022-08-24T03:41:21;13.70;99.90
29201;DHT22;16244;51.956;12.980;2022-08-24T03:43:48;13.70;99.90
29201;DHT22;16244;51.956;12.980;2022-08-24T03:46:17;13.50;99.90
29201;DHT22;16244;51.956;12.980;2022-08-24T03:48:45;13.40;99.90
29201;DHT22;16244;51.956;12.980;2022-08-24T03:51:15;13.20;99.90
29201;DHT22;16244;51.956;12.980;2022-08-24T03:53:44;13.10;99.90
29201;DHT22;16244;51.956;12.980;2022-08-24T03:56:11;13.00;99.90
29201;DHT22;16244;51.956;12.980;2022-08-24T03:58:39;13.10;99.90
29201;DHT22;16244;51.956;12.980;2022-08-24T04:01:08;13.00;99.90
29201;DHT22;16244;51.956;12.980;2022-08-24T04:03:36;13.00;99.90
29201;DHT22;16244;51.956;12.980;2022-08-24T04:06:04;12.90;99.90
29201;DHT22;16244;51.956;12.980;2022-08-24T04:08:32;12.80;99.90
29201;DHT22;16244;51.956;12.980;2022-08-24T04:11:01;12.90;99.90
29201;DHT22;16244;51.956;12.980;2022-08-24T04:13:29;12.90;99.90
29201;DHT22;16244;51.956;12.980;2022-08-24T04:15:57;13.00;99.90
29201;DHT22;16244;51.956;12.980;2022-08-24T04:18:24;13.10;99.90
29201;DHT22;16244;51.956;12.980;2022-08-24T04:20:51;13.20;99.90
29201;DHT22;16244;51.956;12.980;2022-08-24T04:23:18;13.10;99.90
29201;DHT22;16244;51.956;12.980;2022-08-24T04:25:47;13.00;99.90
29201;DHT22;16244;51.956;12.980;2022-08-24T04:28:17;13.00;99.90
29201;DHT22;16244;51.956;12.980;2022-08-24T04:30:46;13.00;99.90
29201;DHT22;16244;51.956;12.980;2022-08-24T04:33:16;13.00;99.90
29201;DHT22;16244;51.956;12.980;2022-08-24T04:35:46;13.10;99.90
29201;DHT22;16244;51.956;12.980;2022-08-24T04:38:14;13.20;99.90
29201;DHT22;16244;51.956;12.980;2022-08-24T04:40:45;13.20;99.90
29201;DHT22;16244;51.956;12.980;2022-08-24T04:43:16;13.30;99.90
29201;DHT22;16244;51.956;12.980;2022-08-24T04:45:47;13.40;99.90
29201;DHT22;16244;51.956;12.980;2022-08-24T04:48:16;13.40;99.90
29201;DHT22;16244;51.956;12.980;2022-08-24T04:50:43;13.40;99.90
29201;DHT22;16244;51.956;12.980;2022-08-24T04:53:12;13.40;99.90
29201;DHT22;16244;51.956;12.980;2022-08-24T04:55:44;13.30;99.90
29201;DHT22;16244;51.956;12.980;2022-08-24T04:58:15;13.20;99.90
29201;DHT22;16244;51.956;12.980;2022-08-24T05:00:43;13.30;99.90
29201;DHT22;16244;51.956;12.980;2022-08-24T05:03:11;13.40;99.90
29201;DHT22;16244;51.956;12.980;2022-08-24T05:05:39;13.40;99.90
29201;DHT22;16244;51.956;12.980;2022-08-24T05:08:07;13.50;99.90
29201;DHT22;16244;51.956;12.980;2022-08-24T05:10:37;13.50;99.90
29201;DHT22;16244;51.956;12.980;2022-08-24T05:13:04;13.60;99.90
29201;DHT22;16244;51.956;12.980;2022-08-24T05:15:34;13.70;99.90
29201;DHT22;16244;51.956;12.980;2022-08-24T05:18:02;13.90;99.90
29201;DHT22;16244;51.956;12.980;2022-08-24T05:20:30;14.00;99.90
29201;DHT22;16244;51.956;12.980;2022-08-24T05:22:57;14.10;99.90
29201;DHT22;16244;51.956;12.980;2022-08-24T05:25:24;14.20;99.90
29201;DHT22;16244;51.956;12.980;2022-08-24T05:27:51;14.30;99.90
29201;DHT22;16244;51.956;12.980;2022-08-24T05:30:19;14.40;99.90
29201;DHT22;16244;51.956;12.980;2022-08-24T05:32:47;14.60;99.90
29201;DHT22;16244;51.956;12.980;2022-08-24T05:35:15;14.70;99.90
29201;DHT22;16244;51.956;12.980;2022-08-24T05:37:42;14.90;99.90
29201;DHT22;16244;51.956;12.980;2022-08-24T05:40:12;15.10;99.90
29201;DHT22;16244;51.956;12.980;2022-08-24T05:42:40;15.40;99.90
29201;DHT22;16244;51.956;12.980;2022-08-24T05:45:08;15.60;99.90
29201;DHT22;16244;51.956;12.980;2022-08-24T05:47:35;15.80;99.90
29201;DHT22;16244;51.956;12.980;2022-08-24T05:50:05;16.00;99.90
29201;DHT22;16244;51.956;12.980;2022-08-24T05:52:33;16.10;99.90
29201;DHT22;16244;51.956;12.980;2022-08-24T05:55:01;16.30;99.90
29201;DHT22;16244;51.956;12.980;2022-08-24T05:57:31;16.30;99.90
29201;DHT22;16244;51.956;12.980;2022-08-24T05:59:59;16.50;99.90
29201;DHT22;16244;51.956;12.980;2022-08-24T06:02:26;16.50;99.90
29201;DHT22;16244;51.956;12.980;2022-08-24T06:04:53;16.60;99.90
29201;DHT22;16244;51.956;12.980;2022-08-24T06:07:22;16.60;99.90
29201;DHT22;16244;51.956;12.980;2022-08-24T06:09:49;16.70;99.90
29201;DHT22;16244;51.956;12.980;2022-08-24T06:12:18;16.70;99.90
29201;DHT22;16244;51.956;12.980;2022-08-24T06:14:46;16.80;99.90
29201;DHT22;16244;51.956;12.980;2022-08-24T06:17:13;16.80;99.90
29201;DHT22;16244;51.956;12.980;2022-08-24T06:19:41;16.80;99.90
29201;DHT22;16244;51.956;12.980;2022-08-24T06:22:08;16.90;99.90
29201;DHT22;16244;51.956;12.980;2022-08-24T06:24:37;17.00;99.90
29201;DHT22;16244;51.956;12.980;2022-08-24T06:27:22;17.00;99.90
29201;DHT22;16244;51.956;12.980;2022-08-24T06:29:52;17.10;99.90
29201;DHT22;16244;51.956;12.980;2022-08-24T06:32:20;17.20;99.90
29201;DHT22;16244;51.956;12.980;2022-08-24T06:34:47;17.20;99.90
29201;DHT22;16244;51.956;12.980;2022-08-24T06:37:15;17.30;99.90
29201;DHT22;16244;51.956;12.980;2022-08-24T06:39:44;17.30;99.90
29201;DHT22;16244;51.956;12.980;2022-08-24T06:42:11;17.30;99.90
29201;DHT22;16244;51.956;12.980;2022-08-24T06:44:38;17.30;99.90
29201;DHT22;16244;51.956;12.980;2022-08-24T06:47:06;17.40;99.90
29201;DHT22;16244;51.956;12.980;2022-08-24T06:49:33;17.50;99.90
29201;DHT22;16244;51.956;12.980;2022-08-24T06:52:02;17.50;99.90
29201;DHT22;16244;51.956;12.980;2022-08-24T06:54:30;17.70;99.90
29201;DHT22;16244;51.956;12.980;2022-08-24T06:56:58;17.80;99.90
29201;DHT22;16244;51.956;12.980;2022-08-24T06:59:25;17.80;99.90
29201;DHT22;16244;51.956;12.980;2022-08-24T07:01:53;17.80;99.90
29201;DHT22;16244;51.956;12.980;2022-08-24T07:04:20;17.90;99.90
29201;DHT22;16244;51.956;12.980;2022-08-24T07:06:49;17.90;99.90
29201;DHT22;16244;51.956;12.980;2022-08-24T07:09:16;18.00;99.90
29201;DHT22;16244;51.956;12.980;2022-08-24T07:11:43;18.00;99.90
29201;DHT22;16244;51.956;12.980;2022-08-24T07:14:12;17.90;99.90
29201;DHT22;16244;51.956;12.980;2022-08-24T07:16:39;18.00;99.90
29201;DHT22;16244;51.956;12.980;2022-08-24T07:19:06;18.10;99.90
29201;DHT22;16244;51.956;12.980;2022-08-24T07:21:33;18.20;99.90
29201;DHT22;16244;51.956;12.980;2022-08-24T07:24:00;18.20;99.90
29201;DHT22;16244;51.956;12.980;2022-08-24T07:26:30;18.40;99.90
29201;DHT22;16244;51.956;12.980;2022-08-24T07:29:01;18.50;99.90
29201;DHT22;16244;51.956;12.980;2022-08-24T07:31:33;18.60;99.90
29201;DHT22;16244;51.956;12.980;2022-08-24T07:34:00;18.70;99.90
29201;DHT22;16244;51.956;12.980;2022-08-24T07:36:28;18.90;99.90
29201;DHT22;16244;51.956;12.980;2022-08-24T07:38:56;19.00;99.90
29201;DHT22;16244;51.956;12.980;2022-08-24T07:41:24;19.20;99.90
29201;DHT22;16244;51.956;12.980;2022-08-24T07:43:52;19.20;99.90
29201;DHT22;16244;51.956;12.980;2022-08-24T07:46:20;19.30;99.90
29201;DHT22;16244;51.956;12.980;2022-08-24T07:48:49;19.30;99.90
29201;DHT22;16244;51.956;12.980;2022-08-24T07:51:17;19.50;99.90
29201;DHT22;16244;51.956;12.980;2022-08-24T07:53:45;19.70;99.90
29201;DHT22;16244;51.956;12.980;2022-08-24T07:56:13;20.00;99.90
29201;DHT22;16244;51.956;12.980;2022-08-24T07:58:40;20.30;99.90
29201;DHT22;16244;51.956;12.980;2022-08-24T08:01:07;20.80;99.90
29201;DHT22;16244;51.956;12.980;2022-08-24T08:03:34;21.10;99.90
29201;DHT22;16244;51.956;12.980;2022-08-24T08:06:05;21.40;99.90
29201;DHT22;16244;51.956;12.980;2022-08-24T08:08:34;21.50;99.90
29201;DHT22;16244;51.956;12.980;2022-08-24T08:11:02;21.90;99.90
29201;DHT22;16244;51.956;12.980;2022-08-24T08:13:29;22.40;99.90
29201;DHT22;16244;51.956;12.980;2022-08-24T08:15:57;22.50;99.90
29201;DHT22;16244;51.956;12.980;2022-08-24T08:18:25;22.60;99.90
29201;DHT22;16244;51.956;12.980;2022-08-24T08:20:53;23.10;99.90
29201;DHT22;16244;51.956;12.980;2022-08-24T08:23:22;23.10;99.90
29201;DHT22;16244;51.956;12.980;2022-08-24T08:26:12;23.30;99.90
29201;DHT22;16244;51.956;12.980;2022-08-24T08:28:42;23.60;99.90
29201;DHT22;16244;51.956;12.980;2022-08-24T08:31:09;23.80;99.90
29201;DHT22;16244;51.956;12.980;2022-08-24T08:33:36;24.00;99.90
29201;DHT22;16244;51.956;12.980;2022-08-24T08:36:06;24.30;99.90
29201;DHT22;16244;51.956;12.980;2022-08-24T08:38:36;24.30;99.90
29201;DHT22;16244;51.956;12.980;2022-08-24T08:44:15;24.60;99.90
29201;DHT22;16244;51.956;12.980;2022-08-24T08:46:51;24.30;99.90
29201;DHT22;16244;51.956;12.980;2022-08-24T08:49:45;23.80;99.90
29201;DHT22;16244;51.956;12.980;2022-08-24T08:52:29;24.00;99.90
29201;DHT22;16244;51.956;12.980;2022-08-24T08:55:04;24.30;99.90
29201;DHT22;16244;51.956;12.980;2022-08-24T08:58:05;24.60;99.90
29201;DHT22;16244;51.956;12.980;2022-08-24T09:00:46;25.10;99.90
29201;DHT22;16244;51.956;12.980;2022-08-24T09:03:50;25.60;99.90
29201;DHT22;16244;51.956;12.980;2022-08-24T09:06:41;25.70;99.90
29201;DHT22;16244;51.956;12.980;2022-08-24T09:09:23;26.10;99.90
29201;DHT22;16244;51.956;12.980;2022-08-24T09:12:02;26.20;99.90
29201;DHT22;16244;51.956;12.980;2022-08-24T09:15:06;26.60;99.90
29201;DHT22;16244;51.956;12.980;2022-08-24T09:17:47;26.70;99.90
29201;DHT22;16244;51.956;12.980;2022-08-24T09:20:30;26.80;99.90
29201;DHT22;16244;51.956;12.980;2022-08-24T09:23:10;26.80;99.90
29201;DHT22;16244;51.956;12.980;2022-08-24T09:25:44;27.00;99.90
29201;DHT22;16244;51.956;12.980;2022-08-24T09:28:32;27.40;99.90
29201;DHT22;16244;51.956;12.980;2022-08-24T09:31:18;27.50;99.90
29201;DHT22;16244;51.956;12.980;2022-08-24T09:33:54;27.50;99.90
29201;DHT22;16244;51.956;12.980;2022-08-24T09:36:43;27.30;99.90
29201;DHT22;16244;51.956;12.980;2022-08-24T09:39:20;27.60;99.90
29201;DHT22;16244;51.956;12.980;2022-08-24T09:42:32;27.60;99.90
29201;DHT22;16244;51.956;12.980;2022-08-24T09:45:22;27.20;99.90
29201;DHT22;16244;51.956;12.980;2022-08-24T09:48:03;26.80;99.90
29201;DHT22;16244;51.956;12.980;2022-08-24T09:50:57;26.60;99.90
29201;DHT22;16244;51.956;12.980;2022-08-24T09:56:39;25.50;99.90
29201;DHT22;16244;51.956;12.980;2022-08-24T09:59:27;25.10;99.90
29201;DHT22;16244;51.956;12.980;2022-08-24T10:02:24;24.90;99.90
29201;DHT22;16244;51.956;12.980;2022-08-24T10:05:02;24.70;99.90
29201;DHT22;16244;51.956;12.980;2022-08-24T10:07:40;24.90;99.90
29201;DHT22;16244;51.956;12.980;2022-08-24T10:10:20;25.70;99.90
29201;DHT22;16244;51.956;12.980;2022-08-24T10:12:59;26.00;99.90
29201;DHT22;16244;51.956;12.980;2022-08-24T10:15:35;26.10;99.90
29201;DHT22;16244;51.956;12.980;2022-08-24T10:18:24;26.60;99.90
29201;DHT22;16244;51.956;12.980;2022-08-24T10:21:08;26.40;99.90
29201;DHT22;16244;51.956;12.980;2022-08-24T10:23:47;26.10;99.90
29201;DHT22;16244;51.956;12.980;2022-08-24T10:26:21;26.10;99.90
29201;DHT22;16244;51.956;12.980;2022-08-24T10:29:06;26.10;99.90
29201;DHT22;16244;51.956;12.980;2022-08-24T10:31:49;25.80;99.90
29201;DHT22;16244;51.956;12.980;2022-08-24T10:34:38;25.40;99.90
29201;DHT22;16244;51.956;12.980;2022-08-24T10:37:27;25.40;99.90
29201;DHT22;16244;51.956;12.980;2022-08-24T10:40:15;26.10;99.90
29201;DHT22;16244;51.956;12.980;2022-08-24T10:43:00;26.90;99.90
29201;DHT22;16244;51.956;12.980;2022-08-24T10:46:00;27.70;99.90
29201;DHT22;16244;51.956;12.980;2022-08-24T10:52:18;28.10;99.90
29201;DHT22;16244;51.956;12.980;2022-08-24T10:54:54;27.70;99.90
29201;DHT22;16244;51.956;12.980;2022-08-24T10:57:28;27.80;99.90
29201;DHT22;16244;51.956;12.980;2022-08-24T11:00:06;27.90;99.90
29201;DHT22;16244;51.956;12.980;2022-08-24T11:02:37;27.90;99.90
29201;DHT22;16244;51.956;12.980;2022-08-24T11:05:07;27.90;99.90
29201;DHT22;16244;51.956;12.980;2022-08-24T11:07:55;27.80;99.90
29201;DHT22;16244;51.956;12.980;2022-08-24T11:10:24;27.70;99.90
29201;DHT22;16244;51.956;12.980;2022-08-24T11:12:53;27.90;99.90
29201;DHT22;16244;51.956;12.980;2022-08-24T11:15:27;28.00;99.90
29201;DHT22;16244;51.956;12.980;2022-08-24T11:17:56;28.00;99.90
29201;DHT22;16244;51.956;12.980;2022-08-24T11:20:26;28.10;99.90
29201;DHT22;16244;51.956;12.980;2022-08-24T11:23:01;28.20;99.90
29201;DHT22;16244;51.956;12.980;2022-08-24T11:25:41;28.20;99.90
29201;DHT22;16244;51.956;12.980;2022-08-24T11:28:18;28.30;99.90
29201;DHT22;16244;51.956;12.980;2022-08-24T11:30:46;28.50;99.90
29201;DHT22;16244;51.956;12.980;2022-08-24T11:33:25;28.30;99.90
29201;DHT22;16244;51.956;12.980;2022-08-24T11:35:52;28.90;99.90
29201;DHT22;16244;51.956;12.980;2022-08-24T11:38:23;29.40;99.90
29201;DHT22;16244;51.956;12.980;2022-08-24T11:40:56;29.20;99.90
29201;DHT22;16244;51.956;12.980;2022-08-24T11:43:33;29.00;99.90
29201;DHT22;16244;51.956;12.980;2022-08-24T11:46:13;28.80;99.90
29201;DHT22;16244;51.956;12.980;2022-08-24T11:48:54;28.80;99.90
29201;DHT22;16244;51.956;12.980;2022-08-24T11:51:32;28.70;99.90
29201;DHT22;16244;51.956;12.980;2022-08-24T11:54:10;28.30;99.90
29201;DHT22;16244;51.956;12.980;2022-08-24T11:57:04;27.90;99.90
29201;DHT22;16244;51.956;12.980;2022-08-24T11:59:38;27.70;99.90
29201;DHT22;16244;51.956;12.980;2022-08-24T12:02:13;27.30;99.90
29201;DHT22;16244;51.956;12.980;2022-08-24T12:04:52;27.20;99.90
29201;DHT22;16244;51.956;12.980;2022-08-24T12:07:30;26.90;99.90
29201;DHT22;16244;51.956;12.980;2022-08-24T12:10:15;27.00;99.90
29201;DHT22;16244;51.956;12.980;2022-08-24T12:12:51;26.80;99.90
29201;DHT22;16244;51.956;12.980;2022-08-24T12:15:31;26.70;99.90
29201;DHT22;16244;51.956;12.980;2022-08-24T12:18:03;26.50;99.90
29201;DHT22;16244;51.956;12.980;2022-08-24T12:20:40;26.40;99.90
29201;DHT22;16244;51.956;12.980;2022-08-24T12:23:13;26.30;99.90
29201;DHT22;16244;51.956;12.980;2022-08-24T12:25:47;26.40;99.90
29201;DHT22;16244;51.956;12.980;2022-08-24T12:28:33;26.20;99.90
29201;DHT22;16244;51.956;12.980;2022-08-24T12:31:07;26.10;99.90
29201;DHT22;16244;51.956;12.980;2022-08-24T12:33:37;25.90;99.90
29201;DHT22;16244;51.956;12.980;2022-08-24T12:36:16;25.90;99.90
29201;DHT22;16244;51.956;12.980;2022-08-24T12:38:47;25.90;99.90
29201;DHT22;16244;51.956;12.980;2022-08-24T12:41:19;25.80;99.90
29201;DHT22;16244;51.956;12.980;2022-08-24T12:43:53;25.80;99.90
29201;DHT22;16244;51.956;12.980;2022-08-24T12:46:23;25.80;99.90
29201;DHT22;16244;51.956;12.980;2022-08-24T12:48:55;25.90;99.90
29201;DHT22;16244;51.956;12.980;2022-08-24T12:51:29;26.00;99.90
29201;DHT22;16244;51.956;12.980;2022-08-24T12:54:28;26.00;99.90
29201;DHT22;16244;51.956;12.980;2022-08-24T12:57:11;25.90;99.90
29201;DHT22;16244;51.956;12.980;2022-08-24T12:59:45;25.80;99.90
29201;DHT22;16244;51.956;12.980;2022-08-24T13:02:31;26.00;99.90
29201;DHT22;16244;51.956;12.980;2022-08-24T13:05:08;26.00;99.90
29201;DHT22;16244;51.956;12.980;2022-08-24T13:07:40;26.00;99.90
29201;DHT22;16244;51.956;12.980;2022-08-24T13:10:39;26.10;99.90
29201;DHT22;16244;51.956;12.980;2022-08-24T13:13:43;25.90;99.90
29201;DHT22;16244;51.956;12.980;2022-08-24T13:16:44;26.00;99.90
29201;DHT22;16244;51.956;12.980;2022-08-24T13:19:36;26.20;99.90
29201;DHT22;16244;51.956;12.980;2022-08-24T13:23:02;26.30;99.90
29201;DHT22;16244;51.956;12.980;2022-08-24T13:25:53;26.40;99.90
29201;DHT22;16244;51.956;12.980;2022-08-24T13:28:41;26.50;99.90
29201;DHT22;16244;51.956;12.980;2022-08-24T13:31:19;26.40;99.90
29201;DHT22;16244;51.956;12.980;2022-08-24T13:33:50;26.40;99.90
29201;DHT22;16244;51.956;12.980;2022-08-24T13:36:47;26.40;99.90
29201;DHT22;16244;51.956;12.980;2022-08-24T13:39:41;26.40;99.90
29201;DHT22;16244;51.956;12.980;2022-08-24T13:45:22;26.40;99.90
29201;DHT22;16244;51.956;12.980;2022-08-24T13:47:56;26.40;99.90
29201;DHT22;16244;51.956;12.980;2022-08-24T13:50:34;26.50;99.90
29201;DHT22;16244;51.956;12.980;2022-08-24T13:53:23;26.60;99.90
29201;DHT22;16244;51.956;12.980;2022-08-24T13:56:21;26.60;99.90
29201;DHT22;16244;51.956;12.980;2022-08-24T13:58:53;26.70;99.90
29201;DHT22;16244;51.956;12.980;2022-08-24T14:01:26;26.60;99.90
29201;DHT22;16244;51.956;12.980;2022-08-24T14:04:06;26.60;99.90
29201;DHT22;16244;51.956;12.980;2022-08-24T14:06:39;26.70;99.90
29201;DHT22;16244;51.956;12.980;2022-08-24T14:09:19;26.70;99.90
29201;DHT22;16244;51.956;12.980;2022-08-24T14:12:25;26.60;99.90
29201;DHT22;16244;51.956;12.980;2022-08-24T14:15:13;26.70;99.90
29201;DHT22;16244;51.956;12.980;2022-08-24T14:17:45;27.00;99.90
29201;DHT22;16244;51.956;12.980;2022-08-24T14:23:25;27.60;99.90
29201;DHT22;16244;51.956;12.980;2022-08-24T14:29:29;28.40;99.90
29201;DHT22;16244;51.956;12.980;2022-08-24T14:32:27;28.70;99.90
29201;DHT22;16244;51.956;12.980;2022-08-24T14:35:03;28.90;99.90
29201;DHT22;16244;51.956;12.980;2022-08-24T14:37:38;29.10;99.90
29201;DHT22;16244;51.956;12.980;2022-08-24T14:40:22;29.50;99.90
29201;DHT22;16244;51.956;12.980;2022-08-24T14:42:55;29.80;99.90
29201;DHT22;16244;51.956;12.980;2022-08-24T14:45:33;29.60;99.90
29201;DHT22;16244;51.956;12.980;2022-08-24T14:48:09;29.30;99.90
29201;DHT22;16244;51.956;12.980;2022-08-24T14:50:48;29.30;99.90
29201;DHT22;16244;51.956;12.980;2022-08-24T14:53:38;29.50;99.90
29201;DHT22;16244;51.956;12.980;2022-08-24T14:56:17;29.30;99.90
29201;DHT22;16244;51.956;12.980;2022-08-24T14:58:50;28.80;99.90
29201;DHT22;16244;51.956;12.980;2022-08-24T15:01:41;28.70;99.90
29201;DHT22;16244;51.956;12.980;2022-08-24T15:04:34;29.10;99.90
29201;DHT22;16244;51.956;12.980;2022-08-24T15:07:25;29.50;99.90
29201;DHT22;16244;51.956;12.980;2022-08-24T15:09:53;29.60;99.90
29201;DHT22;16244;51.956;12.980;2022-08-24T15:12:31;29.70;99.90
29201;DHT22;16244;51.956;12.980;2022-08-24T15:15:04;29.60;99.90
29201;DHT22;16244;51.956;12.980;2022-08-24T15:17:43;29.50;99.90
29201;DHT22;16244;51.956;12.980;2022-08-24T15:20:19;29.50;99.90
29201;DHT22;16244;51.956;12.980;2022-08-24T15:22:54;29.40;99.90
29201;DHT22;16244;51.956;12.980;2022-08-24T15:25:31;29.30;99.90
29201;DHT22;16244;51.956;12.980;2022-08-24T15:28:07;29.10;99.90
29201;DHT22;16244;51.956;12.980;2022-08-24T15:30:36;29.00;99.90
29201;DHT22;16244;51.956;12.980;2022-08-24T15:33:08;29.00;99.90
29201;DHT22;16244;51.956;12.980;2022-08-24T15:35:38;29.20;99.90
29201;DHT22;16244;51.956;12.980;2022-08-24T15:38:21;29.20;99.90
29201;DHT22;16244;51.956;12.980;2022-08-24T15:40:51;29.30;99.90
29201;DHT22;16244;51.956;12.980;2022-08-24T15:43:28;29.50;99.90
29201;DHT22;16244;51.956;12.980;2022-08-24T15:45:55;29.80;99.90
29201;DHT22;16244;51.956;12.980;2022-08-24T15:48:25;30.00;99.90
29201;DHT22;16244;51.956;12.980;2022-08-24T15:50:54;30.20;99.90
29201;DHT22;16244;51.956;12.980;2022-08-24T15:53:33;30.30;99.90
29201;DHT22;16244;51.956;12.980;2022-08-24T15:56:27;30.20;99.90
29201;DHT22;16244;51.956;12.980;2022-08-24T15:59:06;30.00;99.90
29201;DHT22;16244;51.956;12.980;2022-08-24T16:01:34;29.50;99.90
29201;DHT22;16244;51.956;12.980;2022-08-24T16:04:45;29.50;99.90
29201;DHT22;16244;51.956;12.980;2022-08-24T16:07:20;29.50;99.90
29201;DHT22;16244;51.956;12.980;2022-08-24T16:09:47;29.10;99.90
29201;DHT22;16244;51.956;12.980;2022-08-24T16:12:21;28.70;99.90
29201;DHT22;16244;51.956;12.980;2022-08-24T16:14:51;28.50;99.90
29201;DHT22;16244;51.956;12.980;2022-08-24T16:17:25;28.40;99.90
29201;DHT22;16244;51.956;12.980;2022-08-24T16:19:59;28.50;99.90
29201;DHT22;16244;51.956;12.980;2022-08-24T16:22:30;28.60;99.90